createdAt,value
2019-04-11T00:03:02.991Z,98046.84
2019-04-11T00:06:07.776Z,98054.85
2019-04-11T00:09:14.485Z,98056.74
2019-04-11T00:12:19.035Z,98054.06
2019-04-11T00:15:24.491Z,98052.45
2019-04-11T00:18:29.019Z,98051.38
2019-04-11T00:21:33.473Z,98046.83
2019-04-11T00:24:38.753Z,98050.78
2019-04-11T00:27:43.470Z,98052.40
2019-04-11T00:30:48.354Z,98053.45
2019-04-11T00:33:54.209Z,98050.20
2019-04-11T00:36:59.053Z,98056.84
2019-04-11T00:40:04.558Z,98057.64
2019-04-11T00:43:09.429Z,98065.82
2019-04-11T00:46:14.111Z,98064.50
2019-04-11T00:49:18.729Z,98066.32
2019-04-11T00:52:23.367Z,98063.91
2019-04-11T00:55:27.855Z,98063.34
2019-04-11T00:58:32.272Z,98068.45
2019-04-11T01:01:36.998Z,98064.61
2019-04-11T01:04:41.425Z,98062.09
2019-04-11T01:07:47.065Z,98068.36
2019-04-11T01:10:51.908Z,98066.08
2019-04-11T01:13:57.314Z,98065.77
2019-04-11T01:17:03.206Z,98073.50
2019-04-11T01:20:08.738Z,98075.27
2019-04-11T01:23:13.493Z,98071.91
2019-04-11T01:26:19.123Z,98078.28
2019-04-11T01:29:23.816Z,98078.25
2019-04-11T01:32:28.498Z,98078.84
2019-04-11T01:35:33.201Z,98080.23
2019-04-11T01:38:40.797Z,98079.52
2019-04-11T01:41:45.314Z,98081.59
2019-04-11T01:44:50.107Z,98086.88
2019-04-11T01:47:59.432Z,98087.32
2019-04-11T01:51:05.362Z,98081.48
2019-04-11T01:54:11.140Z,98082.73
2019-04-11T01:57:15.976Z,98085.61
2019-04-11T02:00:38.537Z,98086.00
2019-04-11T02:03:45.606Z,98094.63
2019-04-11T02:06:50.228Z,98098.33
2019-04-11T02:09:54.824Z,98096.52
2019-04-11T02:12:59.597Z,98095.20
2019-04-11T02:16:05.013Z,98097.16
2019-04-11T02:19:10.155Z,98093.69
2019-04-11T02:22:22.307Z,98093.48
2019-04-11T02:25:44.998Z,98099.56
2019-04-11T02:28:49.404Z,98098.23
2019-04-11T02:31:55.026Z,98105.23
2019-04-11T02:35:01.759Z,98102.11
2019-04-11T02:38:07.641Z,98104.55
2019-04-11T02:41:13.760Z,98105.88
2019-04-11T02:44:52.707Z,98107.66
2019-04-11T02:47:30.721Z,98111.95
2019-04-11T02:50:32.123Z,98115.38
2019-04-11T02:53:38.792Z,98123.25
2019-04-11T02:56:45.068Z,98113.41
2019-04-11T02:59:51.210Z,98113.19
2019-04-11T03:02:56.898Z,98118.31
2019-04-11T03:06:02.684Z,98120.09
2019-04-11T03:09:08.482Z,98124.08
2019-04-11T03:12:13.347Z,98128.83
2019-04-11T03:15:31.749Z,98126.84
2019-04-11T03:18:40.295Z,98128.80
2019-04-11T03:21:36.625Z,98136.28
2019-04-11T03:24:38.701Z,98129.31
2019-04-11T03:27:45.228Z,98126.47
2019-04-11T03:31:13.291Z,98127.71
2019-04-11T03:40:27.197Z,98140.64
2019-04-11T03:43:30.180Z,98146.02
2019-04-11T03:46:38.485Z,98147.48
2019-04-11T03:49:38.843Z,98151.50
2019-04-11T03:52:36.556Z,98150.20
2019-04-11T03:55:43.317Z,98151.38
2019-04-11T03:58:50.258Z,98154.06
2019-04-11T04:01:56.635Z,98155.69
2019-04-11T04:05:01.384Z,98157.50
2019-04-11T04:08:06.339Z,98159.67
2019-04-11T04:11:16.646Z,98165.38
2019-04-11T04:14:21.575Z,98172.70
2019-04-11T04:17:35.275Z,98173.19
2019-04-11T04:20:41.859Z,98173.22
2019-04-11T04:23:46.915Z,98178.89
2019-04-11T04:26:52.605Z,98178.89
2019-04-11T04:30:00.522Z,98178.78
2019-04-11T04:33:04.972Z,98188.89
2019-04-11T04:36:10.998Z,98183.92
2019-04-11T04:39:17.396Z,98198.19
2019-04-11T04:42:30.789Z,98200.84
2019-04-11T04:45:30.046Z,98202.78
2019-04-11T04:48:34.743Z,98198.70
2019-04-11T04:51:41.428Z,98200.09
2019-04-11T04:54:46.561Z,98201.66
2019-04-11T04:57:53.235Z,98208.32
2019-04-11T05:00:58.662Z,98212.27
2019-04-11T05:04:04.759Z,98212.77
2019-04-11T05:07:10.362Z,98211.95
2019-04-11T05:10:16.255Z,98212.53
2019-04-11T05:13:21.660Z,98209.81
2019-04-11T05:16:26.212Z,98209.41
2019-04-11T05:19:32.012Z,98211.36
2019-04-11T05:22:37.270Z,98215.23
2019-04-11T05:25:42.526Z,98214.77
2019-04-11T05:28:48.836Z,98216.13
2019-04-11T05:31:54.618Z,98226.19
2019-04-11T05:34:59.125Z,98226.16
2019-04-11T05:38:04.838Z,98224.55
2019-04-11T05:41:12.232Z,98223.80
2019-04-11T05:44:16.764Z,98231.72
2019-04-11T05:47:21.470Z,98235.79
2019-04-11T05:50:28.456Z,98231.63
2019-04-11T05:53:36.185Z,98239.50
2019-04-11T05:56:39.821Z,98237.35
2019-04-11T05:59:51.994Z,98243.48
2019-04-11T06:02:57.518Z,98242.55
2019-04-11T06:06:08.572Z,98242.41
2019-04-11T06:09:16.296Z,98244.78
2019-04-11T06:12:38.370Z,98244.53
2019-04-11T06:16:01.358Z,98252.98
2019-04-11T06:19:24.836Z,98254.98
2019-04-11T06:22:29.707Z,98257.94
2019-04-11T06:25:51.886Z,98259.08
2019-04-11T06:29:01.353Z,98256.80
2019-04-11T06:32:21.561Z,98256.47
2019-04-11T06:35:39.957Z,98256.52
2019-04-11T06:38:49.275Z,98261.27
2019-04-11T06:41:59.074Z,98255.15
2019-04-11T06:45:15.625Z,98259.55
2019-04-11T06:48:23.322Z,98260.88
2019-04-11T06:51:30.281Z,98262.42
2019-04-11T06:54:39.388Z,98257.38
2019-04-11T06:57:48.430Z,98255.16
2019-04-11T07:00:55.701Z,98258.51
2019-04-11T07:04:03.042Z,98253.69
2019-04-11T07:07:12.970Z,98255.60
2019-04-11T07:10:20.249Z,98259.09
2019-04-11T07:13:26.393Z,98261.69
2019-04-11T07:16:31.999Z,98261.52
2019-04-11T07:19:48.015Z,98262.56
2019-04-11T07:23:11.401Z,98272.13
2019-04-11T07:26:25.102Z,98274.92
2019-04-11T07:29:31.603Z,98273.60
2019-04-11T07:32:36.458Z,98278.11
2019-04-11T07:35:42.669Z,98276.73
2019-04-11T07:38:54.509Z,98272.97
2019-04-11T07:42:15.937Z,98269.50
2019-04-11T07:45:23.089Z,98279.70
2019-04-11T07:48:31.697Z,98277.55
2019-04-11T07:51:36.524Z,98277.36
2019-04-11T07:54:41.743Z,98275.98
2019-04-11T07:57:48.755Z,98269.55
2019-04-11T08:00:55.937Z,98273.05
2019-04-11T08:04:15.344Z,98285.91
2019-04-11T08:07:30.668Z,98279.64
2019-04-11T08:10:41.245Z,98282.30
2019-04-11T08:13:53.640Z,98280.55
2019-04-11T08:16:59.812Z,98285.35
2019-04-11T08:20:25.527Z,98284.53
2019-04-11T08:23:30.095Z,98278.76
2019-04-11T08:26:52.589Z,98283.48
2019-04-11T08:29:58.848Z,98284.88
2019-04-11T08:33:05.045Z,98282.20
2019-04-11T08:36:27.268Z,98284.19
2019-04-11T08:39:31.713Z,98287.16
2019-04-11T08:42:54.829Z,98282.75
2019-04-11T08:46:18.377Z,98287.67
2019-04-11T08:49:33.900Z,98289.91
2019-04-11T08:52:49.868Z,98291.88
2019-04-11T08:55:58.812Z,98293.86
2019-04-11T08:59:33.449Z,98292.83
2019-04-11T09:02:38.738Z,98296.55
2019-04-11T09:05:51.305Z,98294.03
2019-04-11T09:09:13.760Z,98296.36
2019-04-11T09:12:18.522Z,98290.02
2019-04-11T09:15:26.601Z,98294.69
2019-04-11T09:18:32.992Z,98301.50
2019-04-11T09:21:56.243Z,98296.44
2019-04-11T09:25:09.284Z,98288.94
2019-04-11T09:28:15.585Z,98298.28
2019-04-11T09:31:37.906Z,98286.06
2019-04-11T09:34:48.229Z,98294.59
2019-04-11T09:37:53.730Z,98296.24
2019-04-11T09:41:06.073Z,98304.20
2019-04-11T09:44:12.820Z,98299.28
2019-04-11T09:47:36.111Z,98293.86
2019-04-11T09:50:51.352Z,98291.36
2019-04-11T09:54:10.226Z,98291.20
2019-04-11T09:57:16.535Z,98293.98
2019-04-11T10:00:22.967Z,98292.79
2019-04-11T10:03:29.199Z,98296.25
2019-04-11T10:06:47.299Z,98293.52
2019-04-11T10:10:10.722Z,98289.19
2019-04-11T10:13:16.308Z,98291.04
2019-04-11T10:16:26.433Z,98287.53
2019-04-11T10:19:36.020Z,98283.66
2019-04-11T10:22:40.499Z,98283.91
2019-04-11T10:25:45.534Z,98285.40
2019-04-11T10:28:54.447Z,98293.90
2019-04-11T10:31:59.569Z,98294.02
2019-04-11T10:35:22.523Z,98295.18
2019-04-11T10:38:26.967Z,98292.78
2019-04-11T10:41:33.364Z,98291.41
2019-04-11T10:44:42.340Z,98293.91
2019-04-11T10:47:47.308Z,98289.52
2019-04-11T10:50:54.369Z,98285.47
2019-04-11T10:53:59.663Z,98297.55
2019-04-11T10:57:22.411Z,98291.74
2019-04-11T11:00:29.392Z,98298.86
2019-04-11T11:03:51.425Z,98303.25
2019-04-11T11:06:57.688Z,98291.11
2019-04-11T11:10:03.777Z,98294.95
2019-04-11T11:13:18.602Z,98299.03
2019-04-11T11:16:27.481Z,98300.23
2019-04-11T11:19:59.713Z,98294.37
2019-04-11T11:22:55.877Z,98302.33
2019-04-11T11:26:02.814Z,98295.40
2019-04-11T11:29:24.337Z,98293.89
2019-04-11T11:32:29.423Z,98297.61
2019-04-11T11:35:49.895Z,98294.20
2019-04-11T11:39:13.072Z,98300.09
2019-04-11T11:42:35.115Z,98302.19
2019-04-11T11:45:55.560Z,98310.38
2019-04-11T11:49:02.453Z,98305.11
2019-04-11T11:52:25.336Z,98312.28
2019-04-11T11:55:31.701Z,98308.63
2019-04-11T11:58:47.871Z,98306.77
2019-04-11T12:01:58.121Z,98296.66
2019-04-11T12:05:11.297Z,98302.22
2019-04-11T12:08:18.258Z,98304.03
2019-04-11T12:11:24.457Z,98304.53
2019-04-11T12:14:49.630Z,98291.13
2019-04-11T12:17:55.812Z,98296.41
2019-04-11T12:21:03.086Z,98295.38
2019-04-11T12:24:25.281Z,98304.44
2019-04-11T12:27:50.125Z,98298.61
2019-04-11T12:31:00.676Z,98296.33
2019-04-11T12:34:19.604Z,98296.42
2019-04-11T12:37:29.457Z,98295.34
2019-04-11T12:40:51.722Z,98291.70
2019-04-11T12:43:58.398Z,98294.58
2019-04-11T12:47:13.078Z,98293.50
2019-04-11T12:50:36.479Z,98283.34
2019-04-11T12:53:40.994Z,98292.89
2019-04-11T12:57:03.451Z,98293.86
2019-04-11T13:00:14.396Z,98286.50
2019-04-11T13:03:27.820Z,98286.83
2019-04-11T13:06:37.019Z,98276.95
2019-04-11T13:09:43.794Z,98281.59
2019-04-11T13:12:50.912Z,98280.86
2019-04-11T13:15:57.064Z,98281.59
2019-04-11T13:19:19.333Z,98277.05
2019-04-11T13:22:25.645Z,98276.76
2019-04-11T13:25:35.449Z,98279.63
2019-04-11T13:28:41.537Z,98280.77
2019-04-11T13:31:45.741Z,98273.91
2019-04-11T13:35:10.161Z,98277.66
2019-04-11T13:38:18.955Z,98271.72
2019-04-11T13:41:43.002Z,98272.63
2019-04-11T13:44:47.461Z,98273.81
2019-04-11T13:48:08.803Z,98271.14
2019-04-11T13:51:21.872Z,98270.05
2019-04-11T13:54:34.191Z,98266.48
2019-04-11T13:57:38.675Z,98270.59
2019-04-11T14:00:47.721Z,98275.91
2019-04-11T14:03:58.082Z,98279.41
2019-04-11T14:07:02.906Z,98267.72
2019-04-11T14:10:12.467Z,98266.40
2019-04-11T14:13:16.968Z,98261.53
2019-04-11T14:16:29.949Z,98250.52
2019-04-11T14:19:41.431Z,98258.78
2019-04-11T14:22:59.769Z,98255.52
2019-04-11T14:26:06.098Z,98252.81
2019-04-11T14:29:12.173Z,98258.89
2019-04-11T14:32:18.258Z,98260.98
2019-04-11T14:35:30.435Z,98256.67
2019-04-11T14:38:45.549Z,98259.05
2019-04-11T14:41:44.298Z,98263.61
2019-04-11T14:44:50.394Z,98258.80
2019-04-11T14:48:14.462Z,98256.41
2019-04-11T14:51:18.970Z,98263.92
2019-04-11T14:54:28.005Z,98258.98
2019-04-11T14:57:34.801Z,98268.01
2019-04-11T15:00:39.261Z,98264.47
2019-04-11T15:03:57.622Z,98264.41
2019-04-11T15:07:03.712Z,98262.46
2019-04-11T15:10:22.482Z,98265.14
2019-04-11T15:13:28.564Z,98264.46
2019-04-11T15:16:50.454Z,98265.91
2019-04-11T15:20:03.774Z,98268.85
2019-04-11T15:23:12.984Z,98274.34
2019-04-11T15:26:28.318Z,98272.44
2019-04-11T15:29:33.050Z,98279.22
2019-04-11T15:32:46.287Z,98285.30
2019-04-11T15:35:52.377Z,98276.58
2019-04-11T15:39:15.099Z,98278.13
2019-04-11T15:42:21.191Z,98272.97
2019-04-11T15:45:25.400Z,98283.94
2019-04-11T15:48:31.747Z,98283.45
2019-04-11T15:51:37.752Z,98279.38
2019-04-11T15:55:02.217Z,98283.18
2019-04-11T15:58:06.586Z,98279.36
2019-04-11T16:01:18.929Z,98285.55
2019-04-11T16:04:28.054Z,98286.07
2019-04-11T16:07:39.924Z,98280.60
2019-04-11T16:11:03.232Z,98278.03
2019-04-11T16:14:09.439Z,98286.81
2019-04-11T16:17:19.453Z,98283.88
2019-04-11T16:20:24.597Z,98277.38
2019-04-11T16:23:39.458Z,98281.86
2019-04-11T16:27:01.746Z,98280.48
2019-04-11T16:30:12.134Z,98280.70
2019-04-11T16:33:27.880Z,98281.41
2019-04-11T16:36:34.333Z,98290.74
2019-04-11T16:39:56.572Z,98291.59
2019-04-11T16:43:02.654Z,98292.63
2019-04-11T16:46:25.385Z,98292.84
2019-04-11T16:49:29.859Z,98287.73
2019-04-11T16:52:38.267Z,98292.08
2019-04-11T16:55:43.102Z,98291.36
2019-04-11T16:58:50.151Z,98291.30
2019-04-11T17:01:53.906Z,98296.66
2019-04-11T17:04:58.866Z,98297.89
2019-04-11T17:08:21.230Z,98299.47
2019-04-11T17:11:27.117Z,98300.55
2019-04-11T17:14:33.341Z,98305.22
2019-04-11T17:17:38.247Z,98302.02
2019-04-11T17:20:42.685Z,98303.28
2019-04-11T17:23:47.833Z,98299.56
2019-04-11T17:26:53.343Z,98312.59
2019-04-11T17:29:57.933Z,98321.35
2019-04-11T17:33:02.381Z,98318.66
2019-04-11T17:36:06.823Z,98321.20
2019-04-11T17:39:11.338Z,98321.75
2019-04-11T17:42:15.778Z,98329.36
2019-04-11T17:45:20.226Z,98324.22
2019-04-11T17:48:24.676Z,98328.86
2019-04-11T17:51:29.118Z,98334.93
2019-04-11T17:54:33.578Z,98341.70
2019-04-11T17:57:38.031Z,98339.01
2019-04-11T18:00:46.862Z,98344.84
2019-04-11T18:03:51.311Z,98348.98
2019-04-11T18:06:55.760Z,98357.34
2019-04-11T18:10:00.216Z,98356.23
2019-04-11T18:13:04.644Z,98361.42
2019-04-11T18:16:09.163Z,98367.91
2019-04-11T18:19:13.925Z,98365.35
2019-04-11T18:22:18.366Z,98372.88
2019-04-11T18:25:22.894Z,98369.63
2019-04-11T18:28:27.608Z,98374.27
2019-04-11T18:31:32.054Z,98384.79
2019-04-11T18:34:36.506Z,98385.63
2019-04-11T18:37:40.939Z,98389.64
2019-04-11T18:40:45.536Z,98397.20
2019-04-11T18:43:50.884Z,98398.80
2019-04-11T18:46:55.683Z,98403.38
2019-04-11T18:50:00.415Z,98405.55
2019-04-11T18:53:04.916Z,98405.02
2019-04-11T18:56:09.435Z,98411.19
2019-04-11T18:59:13.873Z,98409.59
2019-04-11T19:02:18.325Z,98416.84
2019-04-11T19:05:28.523Z,98414.13
2019-04-11T19:08:29.448Z,98417.63
2019-04-11T19:11:33.913Z,98429.44
2019-04-11T19:14:38.367Z,98421.11
2019-04-11T19:17:43.955Z,98429.39
2019-04-11T19:20:50.332Z,98430.22
2019-04-11T19:23:55.383Z,98433.69
2019-04-11T19:26:59.829Z,98433.16
2019-04-11T19:30:07.172Z,98441.98
2019-04-11T19:33:11.611Z,98449.73
2019-04-11T19:36:16.055Z,98444.89
2019-04-11T19:39:23.136Z,98444.63
2019-04-11T19:42:26.737Z,98440.89
2019-04-11T19:45:31.461Z,98439.31
2019-04-11T19:48:36.237Z,98439.58
2019-04-11T19:51:40.687Z,98445.97
2019-04-11T19:54:45.392Z,98449.89
2019-04-11T19:57:49.832Z,98448.50
2019-04-11T20:00:54.283Z,98445.17
2019-04-11T20:03:58.702Z,98449.70
2019-04-11T20:07:07.070Z,98446.27
2019-04-11T20:10:12.431Z,98450.73
2019-04-11T20:13:20.426Z,98449.91
2019-04-11T20:16:25.330Z,98440.98
2019-04-11T20:19:29.823Z,98450.31
2019-04-11T20:22:39.203Z,98446.86
2019-04-11T20:25:40.683Z,98450.42
2019-04-11T20:28:45.120Z,98453.05
2019-04-11T20:31:49.553Z,98450.86
2019-04-11T20:34:53.980Z,98458.97
2019-04-11T20:37:58.420Z,98456.55
2019-04-11T20:41:03.132Z,98468.02
2019-04-11T20:44:07.564Z,98469.77
2019-04-11T20:47:12.000Z,98469.20
2019-04-11T20:50:16.434Z,98468.05
2019-04-11T20:53:20.877Z,98471.08
2019-04-11T20:56:25.653Z,98468.77
2019-04-11T20:59:34.836Z,98467.81
2019-04-11T21:02:36.242Z,98472.73
2019-04-11T21:05:40.687Z,98471.56
2019-04-11T21:08:45.115Z,98476.43
2019-04-11T21:11:49.805Z,98478.27
2019-04-11T21:14:54.534Z,98474.05
2019-04-11T21:17:58.970Z,98471.33
2019-04-11T21:21:03.418Z,98477.54
2019-04-11T21:24:07.852Z,98478.36
2019-04-11T21:27:12.284Z,98483.84
2019-04-11T21:30:17.085Z,98483.72
2019-04-11T21:33:21.795Z,98487.25
2019-04-11T21:36:27.009Z,98490.55
2019-04-11T21:39:31.673Z,98490.91
2019-04-11T21:42:36.770Z,98494.59
2019-04-11T21:45:41.302Z,98499.08
2019-04-11T21:48:45.737Z,98504.92
2019-04-11T21:51:50.184Z,98506.90
2019-04-11T21:54:54.612Z,98506.38
2019-04-11T21:57:59.053Z,98505.77
2019-04-11T22:01:08.285Z,98509.47
2019-04-11T22:04:13.097Z,98510.35
2019-04-11T22:07:17.829Z,98507.45
2019-04-11T22:10:22.552Z,98509.70
2019-04-11T22:13:27.056Z,98505.48
2019-04-11T22:16:31.504Z,98503.62
2019-04-11T22:19:36.236Z,98511.12
2019-04-11T22:22:40.676Z,98507.08
2019-04-11T22:25:45.105Z,98504.92
2019-04-11T22:28:49.544Z,98505.95
2019-04-11T22:31:55.957Z,98505.34
2019-04-11T22:35:00.398Z,98504.95
2019-04-11T22:38:04.836Z,98511.38
2019-04-11T22:41:09.262Z,98508.23
2019-04-11T22:44:13.710Z,98514.80
2019-04-11T22:47:18.150Z,98513.57
2019-04-11T22:50:22.577Z,98506.92
2019-04-11T22:53:27.019Z,98514.59
2019-04-11T22:56:31.458Z,98508.19
2019-04-11T22:59:36.300Z,98514.18
2019-04-11T23:02:42.375Z,98510.34
2019-04-11T23:05:47.449Z,98506.65
2019-04-11T23:08:52.347Z,98510.92
2019-04-11T23:11:56.777Z,98512.50
2019-04-11T23:15:01.213Z,98504.04
2019-04-11T23:18:05.913Z,98510.49
2019-04-11T23:21:11.807Z,98510.18
2019-04-11T23:24:16.510Z,98516.39
2019-04-11T23:27:20.936Z,98516.59
2019-04-11T23:30:25.375Z,98520.42
2019-04-11T23:33:29.808Z,98521.76
2019-04-11T23:36:34.504Z,98520.84
2019-04-11T23:39:38.943Z,98515.47
2019-04-11T23:42:43.371Z,98518.25
2019-04-11T23:45:50.967Z,98516.18
2019-04-11T23:48:55.455Z,98517.38
2019-04-11T23:52:00.179Z,98515.72
2019-04-11T23:55:05.739Z,98511.64
2019-04-11T23:58:10.167Z,98516.64
